KFEW/FEW METAR and TAF weather

Enter ICAO airport designator
Station Type Date Time Source
KFEW METAR 2020/01/20 21:58 UTC NOAA

KFEW 202158Z AUTO 20010KT 10SM CLR 07/M19 A3028 RMK AO2 SLP292 T00691195 $


Station Type Date Time Source
KFEW Decoded METAR 2020/01/20 21:58 UTC NOAA

Station name not available
Jan 20, 2020 - 04:58 PM EST / 2020.01.20 2158 UTC
Wind: from the SSW (200 degrees) at 12 MPH (10 KT):0
Visibility: 10 mile(s):0
Sky conditions: clear
Temperature: 44.4 F (6.9 C)
Dew Point: -3.1 F (-19.5 C)
Relative Humidity: 13%
Pressure (altimeter): 30.28 in. Hg (1025 hPa)
ob: KFEW 202158Z AUTO 20010KT 10SM CLR 07/M19 A3028 RMK AO2 SLP292 T00691195
cycle: 22

Station Type Date Time Source
KFEW TAF UTC NOAA

Error!

Example: see airport list